CheckWX is a tool to help pilots better visualize weather data.  It is not intended as a substitute for an official pre-flight weather briefing.

14:56:35 UTC

KGTR METAR
Golden Triangle Regional Airport
Columbus/W Point/Starkville, Mississippi, USA
Current

1 hour ago

KGTR 171356Z 34003KT 10SM CLR 27/22 A3002 RMK AO2 SLP171 T02670222
Observed
Aug-17 @ 13:56 UTC
Wind
  • 340° at 3 KTS
Visibility
10 SM
Flight Rules
VFR
Cloud Levels
  • Clear skies
Temperature
27°C / 81°F
Dewpoint
22°C / 72°F
Heat Index
29°C / 85°F
Humidity
74%
Altimeter
30.02" Hg
Pressure
1016.62 hPa
Previous

2 hours ago

KGTR 171256Z 00000KT 10SM CLR 23/22 A3001 RMK AO2 SLP168 T02330217
Observed
Aug-17 @ 12:56 UTC
Visibility
10 SM
Flight Rules
VFR
Cloud Levels
  • Clear skies
Temperature
23°C / 73°F
Dewpoint
22°C / 72°F
Humidity
94%
Altimeter
30.01" Hg
Pressure
1016.22 hPa
Previous

3 hours ago

KGTR 171156Z 00000KT 10SM CLR 19/18 A2998 RMK AO2 SLP158 T01890183 10217 20183 53016
Observed
Aug-17 @ 11:56 UTC
Visibility
10 SM
Flight Rules
VFR
Cloud Levels
  • Clear skies
Temperature
19°C / 66°F
Dewpoint
18°C / 64°F
Humidity
94%
Altimeter
29.98" Hg
Pressure
1015.22 hPa